createdAt,value
2023-01-03T00:00:19.499Z,82.13
2023-01-03T00:01:19.521Z,82.13
2023-01-03T00:02:19.517Z,82.23
2023-01-03T00:03:19.474Z,82.23
2023-01-03T00:04:19.538Z,82.34
2023-01-03T00:05:19.449Z,82.23
2023-01-03T00:06:19.449Z,82.23
2023-01-03T00:07:19.427Z,82.34
2023-01-03T00:08:19.403Z,82.23
2023-01-03T00:09:19.395Z,82.37
2023-01-03T00:10:19.388Z,82.37
2023-01-03T00:11:19.378Z,82.37
2023-01-03T00:12:19.348Z,82.48
2023-01-03T00:13:19.348Z,82.57
2023-01-03T00:14:19.341Z,82.57
2023-01-03T00:15:19.343Z,82.57
2023-01-03T00:16:19.389Z,82.57
2023-01-03T00:17:19.422Z,82.57
2023-01-03T00:18:19.319Z,82.57
2023-01-03T00:19:19.299Z,82.57
2023-01-03T00:20:19.293Z,82.57
2023-01-03T00:21:19.271Z,82.57
2023-01-03T00:22:19.262Z,82.57
2023-01-03T00:23:19.241Z,82.57
2023-01-03T00:24:19.236Z,82.68
2023-01-03T00:25:19.248Z,82.68
2023-01-03T00:26:19.209Z,82.48
2023-01-03T00:27:19.236Z,82.57
2023-01-03T00:28:19.211Z,82.48
2023-01-03T00:29:19.205Z,82.57
2023-01-03T00:30:19.190Z,82.48
2023-01-03T00:31:19.185Z,82.57
2023-01-03T00:32:19.152Z,82.57
2023-01-03T00:33:19.170Z,82.37
2023-01-03T00:34:19.120Z,82.17
2023-01-03T00:35:19.135Z,82.07
2023-01-03T00:36:19.112Z,81.82
2023-01-03T00:37:19.092Z,81.96
2023-01-03T00:38:19.083Z,81.96
2023-01-03T00:39:19.082Z,81.96
2023-01-03T00:40:19.074Z,81.96
2023-01-03T00:41:19.064Z,81.86
2023-01-03T00:42:19.053Z,82.07
2023-01-03T00:43:19.053Z,81.96
2023-01-03T00:44:19.012Z,81.86
2023-01-03T00:45:20.384Z,81.96
2023-01-03T00:46:19.132Z,82.07
2023-01-03T00:47:18.994Z,82.07
2023-01-03T00:48:19.004Z,81.86
2023-01-03T00:49:18.974Z,81.86
2023-01-03T00:50:18.960Z,81.96
2023-01-03T00:51:18.972Z,82.07
2023-01-03T00:52:18.935Z,82.17
2023-01-03T00:53:18.919Z,82.07
2023-01-03T00:54:18.926Z,81.96
2023-01-03T00:55:18.911Z,81.96
2023-01-03T00:56:18.885Z,81.96
2023-01-03T00:57:18.898Z,81.96
2023-01-03T00:58:18.877Z,82.07
2023-01-03T00:59:18.888Z,82.07
2023-01-03T01:00:18.864Z,82.07
2023-01-03T01:01:18.920Z,81.96
2023-01-03T01:02:18.987Z,81.86
2023-01-03T01:03:18.996Z,81.86
2023-01-03T01:04:18.824Z,81.76
2023-01-03T01:05:18.786Z,81.96
2023-01-03T01:06:18.808Z,81.96
2023-01-03T01:07:18.783Z,81.96
2023-01-03T01:08:18.767Z,81.96
2023-01-03T01:09:18.772Z,81.96
2023-01-03T01:10:18.747Z,81.96
2023-01-03T01:11:18.736Z,82.07
2023-01-03T01:12:18.708Z,81.86
2023-01-03T01:13:18.735Z,81.86
2023-01-03T01:14:18.710Z,81.96
2023-01-03T01:15:18.693Z,81.96
2023-01-03T01:16:18.731Z,82.07
2023-01-03T01:17:22.578Z,82.07
2023-01-03T01:18:18.659Z,82.07
2023-01-03T01:19:18.658Z,82.07
2023-01-03T01:20:18.638Z,82.07
2023-01-03T01:21:18.620Z,82.17
2023-01-03T01:22:18.599Z,82.27
2023-01-03T01:23:18.610Z,82.37
2023-01-03T01:24:18.601Z,82.27
2023-01-03T01:25:18.595Z,82.27
2023-01-03T01:26:18.571Z,82.37
2023-01-03T01:27:18.579Z,82.17
2023-01-03T01:28:18.549Z,82.07
2023-01-03T01:29:18.540Z,82.21
2023-01-03T01:30:18.531Z,82.21
2023-01-03T01:31:18.616Z,82.21
2023-01-03T01:32:18.526Z,82.21
2023-01-03T01:33:18.518Z,82.41
2023-01-03T01:34:18.499Z,82.41
2023-01-03T01:35:18.503Z,82.41
2023-01-03T01:36:18.460Z,82.51
2023-01-03T01:37:18.460Z,82.41
2023-01-03T01:38:18.450Z,82.41
2023-01-03T01:39:18.448Z,82.41
2023-01-03T01:40:18.415Z,82.31
2023-01-03T01:41:18.424Z,82.41
2023-01-03T01:42:20.223Z,82.41
2023-01-03T01:43:18.388Z,82.41
2023-01-03T01:44:18.383Z,82.51
2023-01-03T01:45:18.380Z,82.51
2023-01-03T01:46:18.414Z,82.51
2023-01-03T01:47:18.372Z,82.41
2023-01-03T01:48:18.347Z,82.41
2023-01-03T01:49:18.324Z,82.51
2023-01-03T01:50:18.354Z,82.51
2023-01-03T01:51:18.304Z,82.51
2023-01-03T01:52:18.292Z,82.51
2023-01-03T01:53:18.283Z,82.51
2023-01-03T01:54:18.295Z,82.62
2023-01-03T01:55:18.269Z,82.71
2023-01-03T01:56:18.274Z,82.71
2023-01-03T01:57:18.237Z,82.82
2023-01-03T01:58:18.244Z,82.82
2023-01-03T01:59:18.224Z,82.71
2023-01-03T02:00:18.217Z,82.71
2023-01-03T02:01:18.291Z,82.86
2023-01-03T02:02:18.406Z,82.86
2023-01-03T02:03:18.242Z,82.86
2023-01-03T02:04:18.163Z,82.96
2023-01-03T02:05:18.188Z,82.96
2023-01-03T02:06:18.138Z,82.96
2023-01-03T02:07:18.135Z,82.96
2023-01-03T02:08:18.140Z,83.06
2023-01-03T02:09:18.131Z,83.17
2023-01-03T02:10:18.107Z,83.17
2023-01-03T02:11:18.092Z,82.76
2023-01-03T02:12:18.096Z,82.86
2023-01-03T02:13:18.063Z,82.86
2023-01-03T02:14:18.045Z,82.86
2023-01-03T02:15:18.056Z,82.86
2023-01-03T02:16:18.122Z,82.76
2023-01-03T02:17:18.026Z,82.86
2023-01-03T02:18:17.994Z,82.76
2023-01-03T02:19:17.986Z,82.86
2023-01-03T02:20:18.009Z,82.65
2023-01-03T02:21:20.155Z,82.65
2023-01-03T02:22:17.955Z,82.65
2023-01-03T02:23:17.943Z,82.76
2023-01-03T02:24:17.938Z,82.65
2023-01-03T02:25:17.935Z,82.76
2023-01-03T02:26:17.932Z,82.76
2023-01-03T02:27:17.922Z,82.76
2023-01-03T02:28:17.886Z,82.76
2023-01-03T02:29:17.885Z,82.76
2023-01-03T02:30:17.900Z,82.86
2023-01-03T02:31:17.928Z,82.96
2023-01-03T02:32:17.865Z,83.06
2023-01-03T02:33:17.857Z,83.17
2023-01-03T02:34:17.855Z,83.17
2023-01-03T02:35:17.828Z,83.27
2023-01-03T02:36:17.825Z,83.27
2023-01-03T02:37:17.787Z,83.27
2023-01-03T02:38:17.798Z,83.17
2023-01-03T02:39:22.004Z,83.17
2023-01-03T02:40:18.783Z,83.17
2023-01-03T02:41:17.757Z,83.27
2023-01-03T02:42:17.760Z,83.37
2023-01-03T02:43:17.750Z,83.17
2023-01-03T02:44:17.724Z,83.27
2023-01-03T02:45:17.735Z,83.27
2023-01-03T02:46:17.746Z,83.31
2023-01-03T02:47:17.681Z,83.31
2023-01-03T02:48:17.705Z,83.41
2023-01-03T02:49:17.680Z,83.41
2023-01-03T02:50:17.658Z,83.31
2023-01-03T02:51:17.674Z,83.31
2023-01-03T02:52:17.659Z,83.41
2023-01-03T02:53:17.630Z,83.27
2023-01-03T02:54:17.647Z,83.27
2023-01-03T02:55:17.621Z,83.41
2023-01-03T02:56:17.609Z,83.27
2023-01-03T02:57:17.580Z,83.41
2023-01-03T02:58:17.582Z,83.51
2023-01-03T02:59:17.602Z,83.41
2023-01-03T03:00:17.553Z,83.41
2023-01-03T03:01:17.595Z,83.51
2023-01-03T03:02:17.615Z,83.51
2023-01-03T03:03:17.680Z,83.51
2023-01-03T03:04:17.520Z,83.51
2023-01-03T03:05:17.502Z,83.61
2023-01-03T03:06:17.505Z,83.72
2023-01-03T03:07:17.472Z,83.72
2023-01-03T03:08:17.483Z,83.72
2023-01-03T03:09:17.462Z,83.82
2023-01-03T03:10:17.470Z,83.82
2023-01-03T03:11:17.446Z,83.92
2023-01-03T03:12:17.445Z,83.92
2023-01-03T03:13:17.414Z,83.92
2023-01-03T03:14:17.423Z,84.03
2023-01-03T03:15:17.390Z,84.06
2023-01-03T03:16:17.475Z,84.17
2023-01-03T03:17:17.365Z,84.17
2023-01-03T03:18:17.374Z,84.17
2023-01-03T03:19:17.346Z,84.17
2023-01-03T03:20:17.379Z,84.27
2023-01-03T03:21:17.346Z,84.12
2023-01-03T03:22:17.326Z,84.27
2023-01-03T03:23:17.315Z,84.27
2023-01-03T03:24:17.296Z,84.27
2023-01-03T03:25:17.301Z,84.27
2023-01-03T03:26:17.287Z,84.27
2023-01-03T03:27:17.276Z,84.37
2023-01-03T03:28:17.252Z,84.37
2023-01-03T03:29:17.254Z,84.37
2023-01-03T03:30:17.246Z,84.37
2023-01-03T03:31:17.333Z,84.47
2023-01-03T03:32:17.209Z,84.47
2023-01-03T03:33:17.209Z,84.47
2023-01-03T03:34:17.188Z,84.47
2023-01-03T03:35:17.187Z,84.47
2023-01-03T03:36:17.188Z,84.58
2023-01-03T03:37:17.177Z,84.58
2023-01-03T03:38:17.181Z,84.68
2023-01-03T03:39:17.128Z,84.68
2023-01-03T03:40:17.171Z,84.78
2023-01-03T03:41:17.145Z,84.78
2023-01-03T03:42:17.103Z,84.88
2023-01-03T03:43:17.124Z,84.88
2023-01-03T03:44:17.117Z,84.88
2023-01-03T03:45:17.079Z,84.99
2023-01-03T03:46:17.090Z,84.99
2023-01-03T03:47:17.184Z,84.99
2023-01-03T03:48:17.056Z,85.09
2023-01-03T03:49:17.020Z,84.99
2023-01-03T03:50:17.029Z,84.99
2023-01-03T03:51:17.025Z,84.99
2023-01-03T03:52:17.003Z,84.99
2023-01-03T03:53:16.999Z,85.09
2023-01-03T03:54:16.994Z,85.09
2023-01-03T03:55:16.980Z,85.13
2023-01-03T03:56:16.973Z,85.33
2023-01-03T03:57:16.952Z,85.33
2023-01-03T03:58:16.953Z,85.33
2023-01-03T03:59:16.926Z,85.44
2023-01-03T04:00:16.934Z,85.54
2023-01-03T04:01:16.949Z,85.54
2023-01-03T04:02:16.973Z,85.64
2023-01-03T04:03:17.045Z,85.74
2023-01-03T04:04:16.880Z,85.74
2023-01-03T04:05:16.859Z,85.85
2023-01-03T04:06:16.865Z,85.95
2023-01-03T04:07:16.855Z,85.95
2023-01-03T04:08:16.852Z,85.95
2023-01-03T04:09:16.814Z,85.85
2023-01-03T04:10:16.821Z,85.95
2023-01-03T04:11:16.827Z,86.05
2023-01-03T04:12:16.784Z,85.99
2023-01-03T04:13:16.802Z,85.99
2023-01-03T04:14:16.770Z,85.99
2023-01-03T04:15:16.743Z,85.99
2023-01-03T04:16:16.810Z,85.99
2023-01-03T04:17:16.746Z,86.09
2023-01-03T04:18:16.736Z,86.09
2023-01-03T04:19:16.705Z,86.19
2023-01-03T04:20:16.707Z,86.30
2023-01-03T04:21:20.801Z,86.40
2023-01-03T04:22:16.698Z,86.40
2023-01-03T04:23:16.935Z,86.50
2023-01-03T04:24:16.671Z,86.50
2023-01-03T04:25:16.666Z,86.65
2023-01-03T04:26:16.636Z,86.60
2023-01-03T04:27:16.640Z,86.50
2023-01-03T04:28:16.628Z,86.60
2023-01-03T04:29:16.631Z,86.65
2023-01-03T04:30:16.606Z,86.75
2023-01-03T04:31:16.605Z,86.85
2023-01-03T04:32:16.587Z,86.85
2023-01-03T04:33:16.576Z,86.85
2023-01-03T04:34:16.558Z,86.85
2023-01-03T04:35:16.574Z,86.85
2023-01-03T04:36:16.547Z,86.85
2023-01-03T04:37:16.515Z,86.95
2023-01-03T04:38:16.547Z,86.95
2023-01-03T04:39:16.506Z,87.05
2023-01-03T04:40:16.524Z,87.16
2023-01-03T04:41:16.486Z,87.26
2023-01-03T04:42:16.469Z,87.26
2023-01-03T04:43:16.468Z,87.26
2023-01-03T04:44:16.469Z,87.26
2023-01-03T04:45:16.429Z,87.16
2023-01-03T04:46:16.471Z,87.05
2023-01-03T04:47:16.433Z,87.16
2023-01-03T04:48:16.418Z,87.16
2023-01-03T04:49:16.398Z,87.26
2023-01-03T04:50:16.402Z,87.40
2023-01-03T04:51:16.423Z,87.51
2023-01-03T04:52:16.363Z,87.51
2023-01-03T04:53:16.361Z,87.61
2023-01-03T04:54:16.349Z,87.71
2023-01-03T04:55:16.324Z,87.71
2023-01-03T04:56:16.330Z,87.82
2023-01-03T04:57:16.333Z,87.82
2023-01-03T04:58:16.303Z,87.71
2023-01-03T04:59:16.290Z,87.82
2023-01-03T05:00:16.286Z,87.92
2023-01-03T05:01:16.404Z,88.02
2023-01-03T05:02:16.409Z,88.02
2023-01-03T05:03:16.921Z,88.12
2023-01-03T05:04:16.283Z,88.12
2023-01-03T05:05:16.234Z,88.23
2023-01-03T05:06:16.225Z,88.12
2023-01-03T05:07:16.226Z,88.23
2023-01-03T05:08:16.202Z,88.23
2023-01-03T05:09:16.205Z,88.23
2023-01-03T05:10:16.170Z,88.23
2023-01-03T05:11:16.170Z,88.33
2023-01-03T05:12:16.162Z,88.33
2023-01-03T05:13:16.169Z,88.43
2023-01-03T05:14:16.123Z,88.47
2023-01-03T05:15:16.113Z,88.47
2023-01-03T05:16:16.192Z,88.57
2023-01-03T05:17:16.121Z,88.57
2023-01-03T05:18:16.102Z,88.68
2023-01-03T05:19:16.084Z,88.57
2023-01-03T05:20:16.063Z,88.68
2023-01-03T05:21:16.059Z,88.68
2023-01-03T05:22:16.053Z,88.68
2023-01-03T05:23:16.042Z,88.68
2023-01-03T05:24:16.023Z,88.78
2023-01-03T05:25:16.024Z,88.89
2023-01-03T05:26:16.009Z,88.98
2023-01-03T05:27:16.000Z,88.95
2023-01-03T05:28:17.711Z,88.89
2023-01-03T05:29:15.965Z,88.98
2023-01-03T05:30:15.964Z,88.98
2023-01-03T05:31:15.992Z,88.95
2023-01-03T05:32:16.019Z,88.95
2023-01-03T05:33:15.953Z,88.84
2023-01-03T05:34:15.930Z,88.84
2023-01-03T05:35:15.913Z,88.84
2023-01-03T05:36:16.746Z,88.84
2023-01-03T05:37:15.875Z,88.84
2023-01-03T05:38:16.047Z,88.84
2023-01-03T05:39:15.883Z,88.84
2023-01-03T05:40:15.873Z,88.84
2023-01-03T05:41:16.075Z,88.95
2023-01-03T05:42:15.854Z,88.95
2023-01-03T05:43:15.824Z,88.98
2023-01-03T05:44:15.827Z,88.98
2023-01-03T05:45:15.797Z,89.04
2023-01-03T05:46:15.842Z,89.09
2023-01-03T05:47:15.808Z,89.04
2023-01-03T05:48:15.766Z,89.09
2023-01-03T05:49:15.758Z,89.09
2023-01-03T05:50:15.737Z,89.19
2023-01-03T05:51:15.742Z,89.19
2023-01-03T05:52:15.748Z,89.19
2023-01-03T05:53:16.471Z,89.19
2023-01-03T05:54:15.730Z,89.29
2023-01-03T05:55:16.408Z,89.29
2023-01-03T05:56:15.705Z,89.29
2023-01-03T05:57:16.389Z,89.29
2023-01-03T05:58:15.702Z,89.29
2023-01-03T05:59:15.720Z,89.29
2023-01-03T06:00:15.654Z,89.29
2023-01-03T06:01:16.787Z,89.40
2023-01-03T06:02:15.816Z,89.40
2023-01-03T06:03:16.081Z,89.50
2023-01-03T06:04:15.652Z,89.50
2023-01-03T06:05:16.300Z,89.50
2023-01-03T06:06:15.617Z,89.40
2023-01-03T06:07:15.591Z,89.29
2023-01-03T06:08:15.561Z,89.29
2023-01-03T06:09:15.560Z,89.29
2023-01-03T06:10:15.539Z,89.19
2023-01-03T06:11:15.519Z,89.19
2023-01-03T06:12:15.519Z,89.19
2023-01-03T06:13:15.519Z,89.19
2023-01-03T06:14:15.492Z,89.19
2023-01-03T06:15:15.497Z,89.19
2023-01-03T06:16:18.922Z,89.19
2023-01-03T06:17:16.555Z,89.19
2023-01-03T06:18:15.451Z,89.19
2023-01-03T06:19:15.443Z,89.19
2023-01-03T06:20:15.460Z,89.29
2023-01-03T06:21:15.411Z,89.19
2023-01-03T06:22:15.413Z,89.40
2023-01-03T06:23:15.411Z,89.40
2023-01-03T06:24:15.398Z,89.29
2023-01-03T06:25:15.373Z,89.29
2023-01-03T06:26:15.365Z,89.19
2023-01-03T06:27:15.360Z,89.09
2023-01-03T06:28:15.354Z,89.09
2023-01-03T06:29:15.374Z,88.98
2023-01-03T06:30:15.313Z,88.78
2023-01-03T06:31:15.352Z,88.78
2023-01-03T06:32:15.307Z,88.82
2023-01-03T06:33:15.302Z,88.82
2023-01-03T06:34:15.283Z,88.82
2023-01-03T06:35:15.293Z,88.92
2023-01-03T06:36:15.262Z,89.13
2023-01-03T06:37:15.255Z,89.13
2023-01-03T06:38:15.226Z,89.03
2023-01-03T06:39:15.237Z,89.13
2023-01-03T06:40:15.229Z,89.13
2023-01-03T06:41:15.214Z,89.23
2023-01-03T06:42:15.195Z,89.23
2023-01-03T06:43:15.184Z,89.34
2023-01-03T06:44:15.204Z,89.34
2023-01-03T06:45:15.176Z,89.44
2023-01-03T06:46:15.209Z,89.44
2023-01-03T06:47:15.149Z,89.54
2023-01-03T06:48:15.127Z,89.54
2023-01-03T06:49:15.115Z,89.54
2023-01-03T06:50:15.144Z,89.75
2023-01-03T06:51:15.103Z,89.85
2023-01-03T06:52:15.083Z,89.85
2023-01-03T06:53:15.105Z,89.89
2023-01-03T06:54:15.068Z,89.89
2023-01-03T06:55:15.068Z,89.89
2023-01-03T06:56:15.047Z,90.00
2023-01-03T06:57:26.507Z,90.00
2023-01-03T06:58:16.056Z,90.09
2023-01-03T06:59:15.019Z,90.20
2023-01-03T07:00:15.019Z,90.30
2023-01-03T07:01:15.110Z,90.41
2023-01-03T07:02:15.161Z,90.41
2023-01-03T07:03:14.966Z,90.41
2023-01-03T07:04:15.036Z,90.41
2023-01-03T07:05:14.945Z,90.51
2023-01-03T07:06:14.933Z,90.51
2023-01-03T07:07:15.027Z,90.41
2023-01-03T07:08:14.909Z,90.45
2023-01-03T07:09:14.936Z,90.45
2023-01-03T07:10:14.888Z,90.45
2023-01-03T07:11:14.885Z,90.55
2023-01-03T07:12:14.899Z,90.45
2023-01-03T07:13:14.862Z,90.24
2023-01-03T07:14:14.851Z,90.14
2023-01-03T07:15:14.840Z,90.03
2023-01-03T07:16:14.973Z,89.94
2023-01-03T07:17:14.828Z,89.83
2023-01-03T07:18:14.821Z,89.83
2023-01-03T07:19:14.801Z,89.94
2023-01-03T07:20:14.809Z,89.94
2023-01-03T07:21:14.803Z,89.83
2023-01-03T07:22:14.769Z,89.94
2023-01-03T07:23:14.808Z,89.94
2023-01-03T07:24:14.754Z,90.03
2023-01-03T07:25:14.760Z,90.03
2023-01-03T07:26:14.729Z,90.03
2023-01-03T07:27:14.708Z,90.14
2023-01-03T07:28:14.708Z,90.34
2023-01-03T07:29:14.727Z,90.55
2023-01-03T07:30:14.690Z,90.66
2023-01-03T07:31:14.754Z,90.80
2023-01-03T07:32:14.706Z,91.00
2023-01-03T07:33:14.660Z,91.00
2023-01-03T07:34:14.673Z,91.11
2023-01-03T07:35:14.674Z,91.11
2023-01-03T07:36:14.622Z,91.11
2023-01-03T07:37:14.620Z,91.21
2023-01-03T07:38:14.615Z,91.21
2023-01-03T07:39:14.611Z,91.21
2023-01-03T07:40:14.583Z,91.21
2023-01-03T07:41:14.594Z,91.42
2023-01-03T07:42:14.580Z,91.52
2023-01-03T07:43:14.585Z,91.52
2023-01-03T07:44:14.523Z,91.52
2023-01-03T07:45:14.534Z,91.52
2023-01-03T07:46:14.617Z,91.52
2023-01-03T07:47:14.515Z,91.52
2023-01-03T07:48:14.481Z,91.52
2023-01-03T07:49:14.507Z,91.47
2023-01-03T07:50:14.474Z,91.38
2023-01-03T07:51:14.453Z,91.38
2023-01-03T07:52:14.449Z,91.27
2023-01-03T07:53:14.453Z,91.17
2023-01-03T07:54:14.433Z,90.96
2023-01-03T07:55:14.416Z,90.96
2023-01-03T07:56:14.417Z,90.96
2023-01-03T07:57:14.397Z,90.75
2023-01-03T07:58:14.426Z,90.75
2023-01-03T07:59:14.366Z,90.66
2023-01-03T08:00:14.364Z,90.66
2023-01-03T08:01:14.478Z,90.75
2023-01-03T08:02:14.425Z,90.86
2023-01-03T08:03:14.460Z,90.86
2023-01-03T08:04:14.367Z,90.86
2023-01-03T08:05:14.347Z,90.86
2023-01-03T08:06:14.294Z,90.81
2023-01-03T08:07:14.295Z,90.81
2023-01-03T08:08:14.265Z,90.81
2023-01-03T08:09:14.277Z,90.72
2023-01-03T08:10:14.257Z,90.81
2023-01-03T08:11:14.255Z,90.81
2023-01-03T08:12:14.255Z,90.81
2023-01-03T08:13:14.233Z,90.92
2023-01-03T08:14:14.204Z,90.81
2023-01-03T08:15:14.242Z,90.72
2023-01-03T08:16:14.234Z,90.72
2023-01-03T08:17:14.197Z,90.72
2023-01-03T08:18:14.257Z,90.72
2023-01-03T08:19:14.156Z,90.72
2023-01-03T08:20:14.155Z,90.61
2023-01-03T08:21:14.136Z,90.61
2023-01-03T08:22:14.139Z,90.57
2023-01-03T08:23:14.127Z,90.61
2023-01-03T08:24:14.120Z,90.61
2023-01-03T08:25:14.096Z,90.72
2023-01-03T08:26:14.101Z,90.72
2023-01-03T08:27:14.111Z,90.67
2023-01-03T08:28:14.058Z,90.67
2023-01-03T08:29:14.063Z,90.78
2023-01-03T08:30:14.054Z,90.78
2023-01-03T08:31:14.069Z,90.88
2023-01-03T08:32:14.032Z,90.88
2023-01-03T08:33:14.008Z,90.88
2023-01-03T08:34:19.715Z,90.88
2023-01-03T08:35:14.998Z,90.88
2023-01-03T08:36:13.968Z,90.78
2023-01-03T08:37:13.985Z,90.78
2023-01-03T08:38:13.959Z,90.78
2023-01-03T08:39:13.941Z,90.78
2023-01-03T08:40:13.949Z,90.67
2023-01-03T08:41:13.938Z,90.67
2023-01-03T08:42:13.948Z,90.67
2023-01-03T08:43:13.900Z,90.63
2023-01-03T08:44:13.899Z,90.83
2023-01-03T08:45:14.924Z,90.83
2023-01-03T08:46:13.931Z,90.73
2023-01-03T08:47:13.990Z,90.73
2023-01-03T08:48:13.859Z,90.83
2023-01-03T08:49:14.550Z,90.73
2023-01-03T08:50:13.862Z,90.73
2023-01-03T08:51:13.870Z,90.73
2023-01-03T08:52:13.829Z,90.73
2023-01-03T08:53:14.229Z,90.63
2023-01-03T08:54:13.816Z,90.73
2023-01-03T08:55:13.843Z,90.83
2023-01-03T08:56:13.767Z,90.83
2023-01-03T08:57:13.753Z,90.83
2023-01-03T08:58:13.761Z,90.83
2023-01-03T08:59:13.741Z,90.83
2023-01-03T09:00:13.721Z,90.83
2023-01-03T09:01:13.830Z,90.83
2023-01-03T09:02:13.886Z,90.83
2023-01-03T09:03:14.119Z,90.69
2023-01-03T09:04:13.940Z,90.59
2023-01-03T09:05:13.696Z,90.48
2023-01-03T09:06:13.651Z,90.48
2023-01-03T09:07:13.647Z,90.38
2023-01-03T09:08:13.655Z,90.28
2023-01-03T09:09:13.654Z,90.18
2023-01-03T09:10:13.616Z,90.03
2023-01-03T09:11:13.638Z,89.93
2023-01-03T09:12:13.642Z,89.93
2023-01-03T09:13:13.591Z,89.83
2023-01-03T09:14:13.595Z,89.72
2023-01-03T09:15:13.554Z,89.62
2023-01-03T09:16:13.597Z,89.42
2023-01-03T09:17:13.533Z,89.42
2023-01-03T09:18:13.547Z,89.31
2023-01-03T09:19:13.528Z,89.31
2023-01-03T09:20:13.538Z,89.21
2023-01-03T09:21:13.511Z,89.21
2023-01-03T09:22:13.484Z,89.01
2023-01-03T09:23:13.489Z,88.80
2023-01-03T09:24:13.467Z,88.90
2023-01-03T09:25:13.458Z,89.01
2023-01-03T09:26:13.434Z,89.11
2023-01-03T09:27:13.473Z,89.11
2023-01-03T09:28:13.414Z,89.01
2023-01-03T09:29:13.405Z,89.01
2023-01-03T09:30:13.393Z,89.01
2023-01-03T09:31:13.408Z,89.01
2023-01-03T09:32:13.426Z,89.21
2023-01-03T09:33:13.385Z,89.21
2023-01-03T09:34:13.364Z,89.31
2023-01-03T09:35:13.345Z,89.31
2023-01-03T09:36:13.349Z,89.31
2023-01-03T09:37:13.338Z,89.31
2023-01-03T09:38:13.339Z,89.31
2023-01-03T09:39:13.306Z,89.27
2023-01-03T09:40:13.303Z,89.17
2023-01-03T09:41:13.280Z,89.07
2023-01-03T09:42:13.286Z,88.96
2023-01-03T09:43:13.266Z,88.86
2023-01-03T09:44:13.266Z,88.66
2023-01-03T09:45:13.234Z,88.56
2023-01-03T09:46:13.230Z,88.51
2023-01-03T09:47:13.270Z,88.51
2023-01-03T09:48:13.236Z,88.41
2023-01-03T09:49:13.216Z,88.21
2023-01-03T09:50:44.232Z,88.21
2023-01-03T09:51:21.236Z,88.21
2023-01-03T09:52:14.182Z,88.10
2023-01-03T09:53:13.168Z,88.21
2023-01-03T09:54:13.838Z,88.31
2023-01-03T09:55:13.182Z,88.41
2023-01-03T09:56:14.142Z,88.51
2023-01-03T09:57:13.140Z,88.62
2023-01-03T09:58:14.088Z,88.51
2023-01-03T09:59:13.097Z,88.51
2023-01-03T10:00:13.770Z,88.31
2023-01-03T10:01:13.179Z,88.31
2023-01-03T10:02:13.974Z,88.21
2023-01-03T10:03:13.154Z,88.31
2023-01-03T10:04:13.868Z,88.31
2023-01-03T10:05:13.144Z,88.31
2023-01-03T10:06:13.092Z,88.10
2023-01-03T10:07:13.022Z,88.10
2023-01-03T10:08:13.113Z,88.00
2023-01-03T10:09:13.009Z,87.79
2023-01-03T10:10:14.550Z,87.79
2023-01-03T10:11:12.985Z,87.90
2023-01-03T10:12:12.954Z,88.00
2023-01-03T10:13:19.555Z,88.10
2023-01-03T10:14:13.964Z,88.21
2023-01-03T10:15:12.941Z,88.31
2023-01-03T10:16:13.026Z,88.31
2023-01-03T10:17:12.962Z,88.41
2023-01-03T10:18:12.892Z,88.41
2023-01-03T10:19:12.903Z,88.56
2023-01-03T10:20:12.872Z,88.56
2023-01-03T10:21:12.870Z,88.56
2023-01-03T10:22:12.862Z,88.56
2023-01-03T10:23:12.836Z,88.56
2023-01-03T10:24:12.871Z,88.66
2023-01-03T10:25:12.832Z,88.66
2023-01-03T10:26:12.825Z,88.76
2023-01-03T10:27:12.802Z,88.96
2023-01-03T10:28:13.514Z,88.96
2023-01-03T10:29:12.797Z,88.96
2023-01-03T10:30:13.740Z,88.96
2023-01-03T10:31:12.753Z,88.96
2023-01-03T10:32:13.776Z,88.96
2023-01-03T10:33:12.731Z,88.86
2023-01-03T10:34:13.694Z,88.86
2023-01-03T10:35:12.738Z,88.96
2023-01-03T10:36:13.467Z,89.17
2023-01-03T10:37:12.682Z,89.27
2023-01-03T10:38:13.671Z,89.37
2023-01-03T10:39:12.677Z,89.27
2023-01-03T10:40:12.703Z,89.27
2023-01-03T10:41:12.683Z,89.17
2023-01-03T10:42:13.625Z,89.37
2023-01-03T10:43:12.642Z,89.48
2023-01-03T10:44:13.593Z,89.37
2023-01-03T10:45:12.630Z,89.37
2023-01-03T10:46:12.630Z,89.27
2023-01-03T10:47:12.574Z,89.37
2023-01-03T10:48:12.576Z,89.17
2023-01-03T10:49:29.523Z,89.17
2023-01-03T10:50:13.565Z,89.13
2023-01-03T10:51:12.535Z,89.03
2023-01-03T10:52:12.538Z,89.03
2023-01-03T10:53:12.533Z,89.03
2023-01-03T10:54:12.512Z,89.03
2023-01-03T10:55:12.550Z,89.03
2023-01-03T10:56:12.486Z,89.03
2023-01-03T10:57:12.476Z,89.03
2023-01-03T10:58:12.465Z,88.88
2023-01-03T10:59:12.463Z,88.78
2023-01-03T11:00:12.457Z,88.68
2023-01-03T11:01:12.570Z,88.06
2023-01-03T11:02:12.671Z,87.85
2023-01-03T11:03:12.605Z,87.85
2023-01-03T11:04:12.417Z,87.45
2023-01-03T11:05:12.540Z,87.20
2023-01-03T11:06:12.386Z,87.30
2023-01-03T11:07:14.010Z,87.20
2023-01-03T11:08:12.366Z,87.30
2023-01-03T11:09:12.478Z,86.99
2023-01-03T11:10:12.366Z,86.79
2023-01-03T11:11:12.421Z,86.65
2023-01-03T11:12:12.325Z,86.34
2023-01-03T11:13:13.316Z,86.14
2023-01-03T11:14:12.343Z,86.04
2023-01-03T11:15:13.012Z,85.83
2023-01-03T11:16:12.328Z,85.42
2023-01-03T11:17:13.056Z,85.07
2023-01-03T11:18:12.287Z,85.07
2023-01-03T11:19:12.955Z,84.97
2023-01-03T11:20:12.249Z,84.97
2023-01-03T11:21:12.923Z,84.25
2023-01-03T11:22:12.212Z,83.50
2023-01-03T11:23:12.922Z,83.19
2023-01-03T11:24:12.219Z,82.98
2023-01-03T11:25:12.173Z,83.05
2023-01-03T11:26:12.183Z,83.05
2023-01-03T11:27:12.159Z,83.15
2023-01-03T11:28:16.163Z,82.54
2023-01-03T11:29:12.139Z,82.20
2023-01-03T11:30:12.151Z,82.20
2023-01-03T11:31:12.120Z,81.88
2023-01-03T11:32:12.145Z,81.65
2023-01-03T11:33:12.107Z,81.51
2023-01-03T11:34:12.081Z,80.89
2023-01-03T11:35:22.810Z,79.93
2023-01-03T11:36:13.080Z,79.49
2023-01-03T11:37:12.047Z,79.04
2023-01-03T11:38:12.031Z,78.02
2023-01-03T11:39:15.572Z,77.78
2023-01-03T11:40:13.043Z,77.48
2023-01-03T11:41:12.013Z,77.07
2023-01-03T11:42:11.991Z,76.56
2023-01-03T11:43:11.994Z,76.66
2023-01-03T11:44:11.977Z,76.12
2023-01-03T11:45:11.990Z,75.40
2023-01-03T11:46:12.017Z,75.40
2023-01-03T11:47:11.933Z,74.86
2023-01-03T11:48:11.952Z,74.72
2023-01-03T11:49:11.930Z,72.48
2023-01-03T11:50:11.929Z,69.44
2023-01-03T11:51:11.894Z,65.07
2023-01-03T11:52:11.918Z,59.84
2023-01-03T11:53:11.887Z,56.76
2023-01-03T11:54:11.869Z,54.55
2023-01-03T11:55:11.845Z,51.12
2023-01-03T11:56:11.856Z,49.30
2023-01-03T11:57:11.824Z,47.21
2023-01-03T11:58:11.836Z,45.43
2023-01-03T11:59:11.810Z,43.66
2023-01-03T12:00:11.817Z,41.63
2023-01-03T12:01:11.831Z,40.94
2023-01-03T12:02:11.845Z,40.42
2023-01-03T12:03:11.910Z,40.11
2023-01-03T12:04:11.842Z,39.77
2023-01-03T12:05:11.758Z,39.04
2023-01-03T12:06:11.739Z,38.23
2023-01-03T12:07:46.370Z,37.82
2023-01-03T12:08:12.757Z,37.09
2023-01-03T12:09:11.711Z,36.48
2023-01-03T12:10:11.747Z,36.29
2023-01-03T12:11:11.689Z,35.97
2023-01-03T12:12:11.690Z,35.97
2023-01-03T12:13:11.693Z,35.97
2023-01-03T12:14:11.650Z,35.68
2023-01-03T12:15:11.638Z,35.48
2023-01-03T12:16:11.709Z,35.68
2023-01-03T12:17:11.622Z,35.27
2023-01-03T12:18:11.641Z,34.69
2023-01-03T12:19:12.682Z,34.49
2023-01-03T12:20:11.593Z,34.39
2023-01-03T12:21:11.607Z,34.48
2023-01-03T12:22:11.587Z,34.30
2023-01-03T12:23:11.573Z,34.49
2023-01-03T12:24:11.545Z,34.18
2023-01-03T12:25:11.524Z,34.06
2023-01-03T12:26:11.554Z,33.36
2023-01-03T12:27:11.539Z,32.95
2023-01-03T12:28:11.505Z,32.84
2023-01-03T12:29:11.515Z,32.43
2023-01-03T12:30:11.768Z,32.43
2023-01-03T12:31:11.527Z,32.14
2023-01-03T12:32:11.468Z,31.76
2023-01-03T12:33:11.492Z,33.04
2023-01-03T12:34:11.454Z,34.15
2023-01-03T12:35:11.444Z,34.27
2023-01-03T12:36:11.428Z,34.97
2023-01-03T12:37:11.406Z,34.78
2023-01-03T12:38:11.405Z,34.55
2023-01-03T12:39:11.401Z,34.13
2023-01-03T12:40:11.400Z,34.12
2023-01-03T12:41:11.371Z,34.01
2023-01-03T12:42:11.391Z,33.62
2023-01-03T12:43:11.353Z,33.82
2023-01-03T12:44:11.335Z,33.94
2023-01-03T12:45:11.324Z,34.34
2023-01-03T12:46:13.175Z,34.56
2023-01-03T12:47:11.423Z,35.09
2023-01-03T12:48:11.297Z,35.78
2023-01-03T12:49:11.280Z,35.68
2023-01-03T12:50:11.321Z,35.91
2023-01-03T12:51:11.274Z,37.39
2023-01-03T12:52:16.733Z,39.15